sensor_id;sensor_type;location;lat;lon;timestamp;P1;durP1;ratioP1;P2;durP2;ratioP2
32874;SDS011;40468;42.128;24.750;2022-12-20T00:01:27;25.20;;;8.50;;
32874;SDS011;40468;42.128;24.750;2022-12-20T00:02:59;22.00;;;8.60;;
32874;SDS011;40468;42.128;24.750;2022-12-20T00:04:31;19.77;;;8.10;;
32874;SDS011;40468;42.128;24.750;2022-12-20T00:06:03;20.15;;;8.02;;
32874;SDS011;40468;42.128;24.750;2022-12-20T00:07:34;17.20;;;8.10;;
32874;SDS011;40468;42.128;24.750;2022-12-20T00:09:08;28.40;;;9.32;;
32874;SDS011;40468;42.128;24.750;2022-12-20T00:10:42;19.13;;;7.90;;
32874;SDS011;40468;42.128;24.750;2022-12-20T00:12:16;18.17;;;7.85;;
32874;SDS011;40468;42.128;24.750;2022-12-20T00:13:48;18.73;;;7.70;;
32874;SDS011;40468;42.128;24.750;2022-12-20T00:15:19;21.45;;;8.10;;
32874;SDS011;40468;42.128;24.750;2022-12-20T00:16:51;22.08;;;8.15;;
32874;SDS011;40468;42.128;24.750;2022-12-20T00:18:21;18.58;;;7.63;;
32874;SDS011;40468;42.128;24.750;2022-12-20T00:19:53;16.88;;;7.95;;
32874;SDS011;40468;42.128;24.750;2022-12-20T00:21:25;17.00;;;7.90;;
32874;SDS011;40468;42.128;24.750;2022-12-20T00:22:58;16.67;;;7.40;;
32874;SDS011;40468;42.128;24.750;2022-12-20T00:24:31;19.25;;;8.30;;
32874;SDS011;40468;42.128;24.750;2022-12-20T00:26:04;17.63;;;8.13;;
32874;SDS011;40468;42.128;24.750;2022-12-20T00:27:37;17.55;;;7.43;;
32874;SDS011;40468;42.128;24.750;2022-12-20T00:29:09;18.08;;;7.57;;
32874;SDS011;40468;42.128;24.750;2022-12-20T00:30:41;20.98;;;7.85;;
32874;SDS011;40468;42.128;24.750;2022-12-20T00:32:13;17.52;;;7.72;;
32874;SDS011;40468;42.128;24.750;2022-12-20T00:33:45;19.30;;;8.10;;
32874;SDS011;40468;42.128;24.750;2022-12-20T00:35:19;19.02;;;8.10;;
32874;SDS011;40468;42.128;24.750;2022-12-20T00:36:51;18.10;;;7.40;;
32874;SDS011;40468;42.128;24.750;2022-12-20T00:38:23;17.35;;;7.75;;
32874;SDS011;40468;42.128;24.750;2022-12-20T00:39:57;19.73;;;8.25;;
32874;SDS011;40468;42.128;24.750;2022-12-20T00:41:29;21.20;;;8.30;;
32874;SDS011;40468;42.128;24.750;2022-12-20T00:43:02;19.77;;;9.05;;
32874;SDS011;40468;42.128;24.750;2022-12-20T00:44:34;21.80;;;8.43;;
32874;SDS011;40468;42.128;24.750;2022-12-20T00:46:07;20.55;;;8.40;;
32874;SDS011;40468;42.128;24.750;2022-12-20T00:47:40;18.50;;;7.57;;
32874;SDS011;40468;42.128;24.750;2022-12-20T00:49:12;18.67;;;8.52;;
32874;SDS011;40468;42.128;24.750;2022-12-20T00:52:16;21.50;;;7.68;;
32874;SDS011;40468;42.128;24.750;2022-12-20T00:53:48;18.30;;;8.32;;
32874;SDS011;40468;42.128;24.750;2022-12-20T00:55:21;15.52;;;7.28;;
32874;SDS011;40468;42.128;24.750;2022-12-20T00:58:24;21.30;;;8.73;;
32874;SDS011;40468;42.128;24.750;2022-12-20T00:59:55;27.60;;;9.60;;
32874;SDS011;40468;42.128;24.750;2022-12-20T01:01:27;21.52;;;9.70;;
32874;SDS011;40468;42.128;24.750;2022-12-20T01:03:01;24.27;;;10.65;;
32874;SDS011;40468;42.128;24.750;2022-12-20T01:04:32;24.50;;;9.93;;
32874;SDS011;40468;42.128;24.750;2022-12-20T01:06:04;25.15;;;10.13;;
32874;SDS011;40468;42.128;24.750;2022-12-20T01:07:36;27.63;;;10.05;;
32874;SDS011;40468;42.128;24.750;2022-12-20T01:09:08;24.58;;;9.73;;
32874;SDS011;40468;42.128;24.750;2022-12-20T01:10:42;28.35;;;10.70;;
32874;SDS011;40468;42.128;24.750;2022-12-20T01:12:13;25.00;;;10.43;;
32874;SDS011;40468;42.128;24.750;2022-12-20T01:13:46;24.27;;;10.30;;
32874;SDS011;40468;42.128;24.750;2022-12-20T01:15:19;28.30;;;11.40;;
32874;SDS011;40468;42.128;24.750;2022-12-20T01:16:51;26.25;;;11.23;;
32874;SDS011;40468;42.128;24.750;2022-12-20T01:18:23;27.50;;;10.00;;
32874;SDS011;40468;42.128;24.750;2022-12-20T01:19:55;26.23;;;10.38;;
32874;SDS011;40468;42.128;24.750;2022-12-20T01:21:27;23.92;;;9.80;;
32874;SDS011;40468;42.128;24.750;2022-12-20T01:22:59;27.90;;;11.10;;
32874;SDS011;40468;42.128;24.750;2022-12-20T01:24:31;25.90;;;10.57;;
32874;SDS011;40468;42.128;24.750;2022-12-20T01:26:05;27.63;;;11.25;;
32874;SDS011;40468;42.128;24.750;2022-12-20T01:27:38;27.42;;;10.48;;
32874;SDS011;40468;42.128;24.750;2022-12-20T01:29:10;24.08;;;10.60;;
32874;SDS011;40468;42.128;24.750;2022-12-20T01:30:43;24.52;;;10.05;;
32874;SDS011;40468;42.128;24.750;2022-12-20T01:32:14;24.00;;;9.40;;
32874;SDS011;40468;42.128;24.750;2022-12-20T01:33:46;26.30;;;9.77;;
32874;SDS011;40468;42.128;24.750;2022-12-20T01:35:18;21.58;;;10.07;;
32874;SDS011;40468;42.128;24.750;2022-12-20T01:36:49;28.55;;;11.18;;
32874;SDS011;40468;42.128;24.750;2022-12-20T01:38:21;23.80;;;9.25;;
32874;SDS011;40468;42.128;24.750;2022-12-20T01:39:53;28.75;;;10.07;;
32874;SDS011;40468;42.128;24.750;2022-12-20T01:41:27;25.88;;;9.68;;
32874;SDS011;40468;42.128;24.750;2022-12-20T01:43:00;24.63;;;9.00;;
32874;SDS011;40468;42.128;24.750;2022-12-20T01:44:55;20.73;;;8.68;;
32874;SDS011;40468;42.128;24.750;2022-12-20T01:46:29;20.23;;;8.98;;
32874;SDS011;40468;42.128;24.750;2022-12-20T01:48:02;22.08;;;8.80;;
32874;SDS011;40468;42.128;24.750;2022-12-20T01:49:35;22.20;;;9.50;;
32874;SDS011;40468;42.128;24.750;2022-12-20T01:51:09;24.48;;;9.90;;
32874;SDS011;40468;42.128;24.750;2022-12-20T01:52:42;27.65;;;8.85;;
32874;SDS011;40468;42.128;24.750;2022-12-20T01:54:18;24.23;;;9.48;;
32874;SDS011;40468;42.128;24.750;2022-12-20T01:55:53;21.58;;;8.93;;
32874;SDS011;40468;42.128;24.750;2022-12-20T01:57:28;22.95;;;9.13;;
32874;SDS011;40468;42.128;24.750;2022-12-20T01:59:04;27.52;;;8.43;;
32874;SDS011;40468;42.128;24.750;2022-12-20T02:00:37;33.30;;;9.60;;
32874;SDS011;40468;42.128;24.750;2022-12-20T02:02:08;22.08;;;9.30;;
32874;SDS011;40468;42.128;24.750;2022-12-20T02:03:42;26.58;;;10.25;;
32874;SDS011;40468;42.128;24.750;2022-12-20T02:05:16;22.13;;;9.00;;
32874;SDS011;40468;42.128;24.750;2022-12-20T02:06:49;21.73;;;8.82;;
32874;SDS011;40468;42.128;24.750;2022-12-20T02:08:21;22.23;;;9.80;;
32874;SDS011;40468;42.128;24.750;2022-12-20T02:09:53;24.65;;;9.77;;
32874;SDS011;40468;42.128;24.750;2022-12-20T02:11:31;22.75;;;8.98;;
32874;SDS011;40468;42.128;24.750;2022-12-20T02:13:23;23.23;;;9.75;;
32874;SDS011;40468;42.128;24.750;2022-12-20T02:15:15;23.55;;;8.93;;
32874;SDS011;40468;42.128;24.750;2022-12-20T02:17:03;23.00;;;9.18;;
32874;SDS011;40468;42.128;24.750;2022-12-20T02:18:43;23.80;;;9.25;;
32874;SDS011;40468;42.128;24.750;2022-12-20T02:20:37;20.02;;;9.02;;
32874;SDS011;40468;42.128;24.750;2022-12-20T02:22:23;22.70;;;8.48;;
32874;SDS011;40468;42.128;24.750;2022-12-20T02:24:09;25.85;;;9.00;;
32874;SDS011;40468;42.128;24.750;2022-12-20T02:26:04;24.52;;;8.55;;
32874;SDS011;40468;42.128;24.750;2022-12-20T02:27:53;23.90;;;9.02;;
32874;SDS011;40468;42.128;24.750;2022-12-20T02:29:36;23.42;;;9.18;;
32874;SDS011;40468;42.128;24.750;2022-12-20T02:31:11;22.63;;;9.55;;
32874;SDS011;40468;42.128;24.750;2022-12-20T02:32:48;25.17;;;9.60;;
32874;SDS011;40468;42.128;24.750;2022-12-20T02:34:25;23.88;;;8.70;;
32874;SDS011;40468;42.128;24.750;2022-12-20T02:36:01;27.10;;;10.05;;
32874;SDS011;40468;42.128;24.750;2022-12-20T02:37:34;24.98;;;9.88;;
32874;SDS011;40468;42.128;24.750;2022-12-20T02:39:05;23.27;;;8.73;;
32874;SDS011;40468;42.128;24.750;2022-12-20T02:40:38;22.17;;;9.02;;
32874;SDS011;40468;42.128;24.750;2022-12-20T02:42:12;23.23;;;9.02;;
32874;SDS011;40468;42.128;24.750;2022-12-20T02:43:47;22.95;;;9.38;;
32874;SDS011;40468;42.128;24.750;2022-12-20T02:45:39;25.30;;;10.20;;
32874;SDS011;40468;42.128;24.750;2022-12-20T02:47:13;21.45;;;9.32;;
32874;SDS011;40468;42.128;24.750;2022-12-20T02:48:50;27.45;;;10.43;;
32874;SDS011;40468;42.128;24.750;2022-12-20T02:50:26;24.85;;;9.13;;
32874;SDS011;40468;42.128;24.750;2022-12-20T02:52:01;21.42;;;9.05;;
32874;SDS011;40468;42.128;24.750;2022-12-20T02:53:33;26.55;;;10.10;;
32874;SDS011;40468;42.128;24.750;2022-12-20T02:55:07;27.92;;;10.88;;
32874;SDS011;40468;42.128;24.750;2022-12-20T02:56:40;25.65;;;9.95;;
32874;SDS011;40468;42.128;24.750;2022-12-20T02:58:17;23.73;;;9.68;;
32874;SDS011;40468;42.128;24.750;2022-12-20T02:59:57;23.38;;;9.85;;
32874;SDS011;40468;42.128;24.750;2022-12-20T03:01:35;27.42;;;10.60;;
32874;SDS011;40468;42.128;24.750;2022-12-20T03:03:11;23.65;;;9.35;;
32874;SDS011;40468;42.128;24.750;2022-12-20T03:04:52;22.48;;;9.80;;
32874;SDS011;40468;42.128;24.750;2022-12-20T03:06:26;23.70;;;9.60;;
32874;SDS011;40468;42.128;24.750;2022-12-20T03:07:59;29.05;;;10.10;;
32874;SDS011;40468;42.128;24.750;2022-12-20T03:09:32;26.58;;;10.15;;
32874;SDS011;40468;42.128;24.750;2022-12-20T03:11:06;23.60;;;9.38;;
32874;SDS011;40468;42.128;24.750;2022-12-20T03:12:38;22.90;;;9.93;;
32874;SDS011;40468;42.128;24.750;2022-12-20T03:14:10;23.88;;;9.95;;
32874;SDS011;40468;42.128;24.750;2022-12-20T03:15:42;27.33;;;10.57;;
32874;SDS011;40468;42.128;24.750;2022-12-20T03:17:14;25.08;;;10.65;;
32874;SDS011;40468;42.128;24.750;2022-12-20T03:18:47;25.33;;;9.40;;
32874;SDS011;40468;42.128;24.750;2022-12-20T03:20:19;24.20;;;10.00;;
32874;SDS011;40468;42.128;24.750;2022-12-20T03:21:50;23.90;;;9.65;;
32874;SDS011;40468;42.128;24.750;2022-12-20T03:23:23;25.52;;;9.48;;
32874;SDS011;40468;42.128;24.750;2022-12-20T03:24:55;30.80;;;10.18;;
32874;SDS011;40468;42.128;24.750;2022-12-20T03:26:26;25.23;;;9.85;;
32874;SDS011;40468;42.128;24.750;2022-12-20T03:27:58;25.45;;;10.95;;
32874;SDS011;40468;42.128;24.750;2022-12-20T03:29:30;27.30;;;10.98;;
32874;SDS011;40468;42.128;24.750;2022-12-20T03:31:02;31.42;;;11.02;;
32874;SDS011;40468;42.128;24.750;2022-12-20T03:32:34;26.58;;;10.80;;
32874;SDS011;40468;42.128;24.750;2022-12-20T03:34:07;28.90;;;10.25;;
32874;SDS011;40468;42.128;24.750;2022-12-20T03:35:39;30.98;;;10.43;;
32874;SDS011;40468;42.128;24.750;2022-12-20T03:37:11;23.80;;;10.13;;
32874;SDS011;40468;42.128;24.750;2022-12-20T03:38:43;23.15;;;9.85;;
32874;SDS011;40468;42.128;24.750;2022-12-20T03:40:15;27.13;;;10.93;;
32874;SDS011;40468;42.128;24.750;2022-12-20T03:41:47;24.80;;;9.82;;
32874;SDS011;40468;42.128;24.750;2022-12-20T03:43:19;33.10;;;10.43;;
32874;SDS011;40468;42.128;24.750;2022-12-20T03:44:49;25.08;;;9.63;;
32874;SDS011;40468;42.128;24.750;2022-12-20T03:46:21;25.02;;;10.27;;
32874;SDS011;40468;42.128;24.750;2022-12-20T03:47:53;25.55;;;10.32;;
32874;SDS011;40468;42.128;24.750;2022-12-20T03:49:26;25.15;;;10.50;;
32874;SDS011;40468;42.128;24.750;2022-12-20T03:50:58;27.15;;;9.70;;
32874;SDS011;40468;42.128;24.750;2022-12-20T03:52:30;26.35;;;9.75;;
32874;SDS011;40468;42.128;24.750;2022-12-20T03:54:02;32.03;;;12.52;;
32874;SDS011;40468;42.128;24.750;2022-12-20T03:55:34;28.40;;;10.82;;
32874;SDS011;40468;42.128;24.750;2022-12-20T03:57:05;35.20;;;13.63;;
32874;SDS011;40468;42.128;24.750;2022-12-20T03:58:37;27.95;;;12.55;;
32874;SDS011;40468;42.128;24.750;2022-12-20T04:00:09;36.65;;;13.98;;
32874;SDS011;40468;42.128;24.750;2022-12-20T04:01:42;28.58;;;11.77;;
32874;SDS011;40468;42.128;24.750;2022-12-20T04:03:14;32.08;;;12.27;;
32874;SDS011;40468;42.128;24.750;2022-12-20T04:04:46;25.20;;;11.38;;
32874;SDS011;40468;42.128;24.750;2022-12-20T04:07:50;28.50;;;10.55;;
32874;SDS011;40468;42.128;24.750;2022-12-20T04:09:21;31.67;;;11.00;;
32874;SDS011;40468;42.128;24.750;2022-12-20T04:10:53;30.30;;;11.13;;
32874;SDS011;40468;42.128;24.750;2022-12-20T04:12:42;25.88;;;10.45;;
32874;SDS011;40468;42.128;24.750;2022-12-20T04:14:14;25.65;;;10.15;;
32874;SDS011;40468;42.128;24.750;2022-12-20T04:15:46;26.85;;;10.18;;
32874;SDS011;40468;42.128;24.750;2022-12-20T04:17:17;26.63;;;10.85;;
32874;SDS011;40468;42.128;24.750;2022-12-20T04:18:50;33.58;;;12.07;;
32874;SDS011;40468;42.128;24.750;2022-12-20T04:20:22;29.67;;;11.07;;
32874;SDS011;40468;42.128;24.750;2022-12-20T04:21:54;24.52;;;11.10;;
32874;SDS011;40468;42.128;24.750;2022-12-20T04:23:27;27.23;;;11.63;;
32874;SDS011;40468;42.128;24.750;2022-12-20T04:24:58;28.05;;;11.32;;
32874;SDS011;40468;42.128;24.750;2022-12-20T04:26:30;30.08;;;11.35;;
32874;SDS011;40468;42.128;24.750;2022-12-20T04:28:01;29.40;;;11.60;;
32874;SDS011;40468;42.128;24.750;2022-12-20T04:29:33;26.88;;;10.60;;
32874;SDS011;40468;42.128;24.750;2022-12-20T04:31:05;30.48;;;11.23;;
32874;SDS011;40468;42.128;24.750;2022-12-20T04:32:36;27.20;;;11.15;;
32874;SDS011;40468;42.128;24.750;2022-12-20T04:34:08;30.27;;;12.15;;
32874;SDS011;40468;42.128;24.750;2022-12-20T04:35:41;27.10;;;11.23;;
32874;SDS011;40468;42.128;24.750;2022-12-20T04:37:12;34.85;;;12.20;;
32874;SDS011;40468;42.128;24.750;2022-12-20T04:38:44;28.67;;;11.85;;
32874;SDS011;40468;42.128;24.750;2022-12-20T04:40:16;33.00;;;12.43;;
32874;SDS011;40468;42.128;24.750;2022-12-20T04:41:48;30.65;;;12.60;;
32874;SDS011;40468;42.128;24.750;2022-12-20T04:43:20;30.15;;;12.23;;
32874;SDS011;40468;42.128;24.750;2022-12-20T04:44:54;35.38;;;12.52;;
32874;SDS011;40468;42.128;24.750;2022-12-20T04:46:26;29.55;;;12.15;;
32874;SDS011;40468;42.128;24.750;2022-12-20T04:47:58;30.20;;;12.07;;
32874;SDS011;40468;42.128;24.750;2022-12-20T04:49:29;31.42;;;12.48;;
32874;SDS011;40468;42.128;24.750;2022-12-20T04:51:02;28.17;;;11.75;;
32874;SDS011;40468;42.128;24.750;2022-12-20T04:52:33;31.58;;;11.32;;
32874;SDS011;40468;42.128;24.750;2022-12-20T04:54:24;33.03;;;12.95;;
32874;SDS011;40468;42.128;24.750;2022-12-20T04:55:56;31.50;;;12.48;;
32874;SDS011;40468;42.128;24.750;2022-12-20T04:57:27;29.05;;;11.07;;
32874;SDS011;40468;42.128;24.750;2022-12-20T04:58:59;31.65;;;12.20;;
32874;SDS011;40468;42.128;24.750;2022-12-20T05:00:31;31.30;;;11.85;;
32874;SDS011;40468;42.128;24.750;2022-12-20T05:02:02;26.15;;;10.52;;
32874;SDS011;40468;42.128;24.750;2022-12-20T05:03:34;29.08;;;11.32;;
32874;SDS011;40468;42.128;24.750;2022-12-20T05:05:06;30.58;;;12.75;;
32874;SDS011;40468;42.128;24.750;2022-12-20T05:06:40;49.15;;;18.75;;
32874;SDS011;40468;42.128;24.750;2022-12-20T05:08:12;46.47;;;17.60;;
32874;SDS011;40468;42.128;24.750;2022-12-20T05:09:43;28.92;;;12.13;;
32874;SDS011;40468;42.128;24.750;2022-12-20T05:11:16;31.27;;;12.85;;
32874;SDS011;40468;42.128;24.750;2022-12-20T05:12:47;36.88;;;13.18;;
32874;SDS011;40468;42.128;24.750;2022-12-20T05:14:19;35.13;;;14.43;;
32874;SDS011;40468;42.128;24.750;2022-12-20T05:15:51;43.78;;;15.43;;
32874;SDS011;40468;42.128;24.750;2022-12-20T05:17:24;45.95;;;17.25;;
32874;SDS011;40468;42.128;24.750;2022-12-20T05:18:55;41.15;;;15.27;;
32874;SDS011;40468;42.128;24.750;2022-12-20T05:20:27;38.83;;;14.88;;
32874;SDS011;40468;42.128;24.750;2022-12-20T05:22:01;40.85;;;14.85;;
32874;SDS011;40468;42.128;24.750;2022-12-20T05:23:51;38.47;;;14.57;;
32874;SDS011;40468;42.128;24.750;2022-12-20T05:25:41;46.50;;;15.30;;
32874;SDS011;40468;42.128;24.750;2022-12-20T05:27:33;36.67;;;14.50;;
32874;SDS011;40468;42.128;24.750;2022-12-20T05:29:05;36.10;;;14.45;;
32874;SDS011;40468;42.128;24.750;2022-12-20T05:30:37;43.30;;;14.25;;
32874;SDS011;40468;42.128;24.750;2022-12-20T05:32:07;33.30;;;13.75;;
32874;SDS011;40468;42.128;24.750;2022-12-20T05:33:39;37.03;;;14.68;;
32874;SDS011;40468;42.128;24.750;2022-12-20T05:35:10;39.17;;;13.57;;
32874;SDS011;40468;42.128;24.750;2022-12-20T05:36:42;33.72;;;13.95;;
32874;SDS011;40468;42.128;24.750;2022-12-20T05:38:15;35.55;;;14.00;;
32874;SDS011;40468;42.128;24.750;2022-12-20T05:39:46;39.83;;;14.55;;
32874;SDS011;40468;42.128;24.750;2022-12-20T05:41:19;34.28;;;13.70;;
32874;SDS011;40468;42.128;24.750;2022-12-20T05:42:51;39.72;;;15.05;;
32874;SDS011;40468;42.128;24.750;2022-12-20T05:44:22;38.13;;;14.38;;
32874;SDS011;40468;42.128;24.750;2022-12-20T05:45:54;43.67;;;14.60;;
32874;SDS011;40468;42.128;24.750;2022-12-20T05:47:26;48.17;;;15.43;;
32874;SDS011;40468;42.128;24.750;2022-12-20T05:48:58;49.03;;;17.58;;
32874;SDS011;40468;42.128;24.750;2022-12-20T05:50:30;43.00;;;15.90;;
32874;SDS011;40468;42.128;24.750;2022-12-20T05:52:01;42.90;;;17.08;;
32874;SDS011;40468;42.128;24.750;2022-12-20T05:53:35;40.80;;;16.77;;
32874;SDS011;40468;42.128;24.750;2022-12-20T05:56:38;35.10;;;14.52;;
32874;SDS011;40468;42.128;24.750;2022-12-20T05:58:10;42.70;;;15.23;;
32874;SDS011;40468;42.128;24.750;2022-12-20T05:59:43;42.10;;;15.43;;
32874;SDS011;40468;42.128;24.750;2022-12-20T06:01:15;43.78;;;16.50;;
32874;SDS011;40468;42.128;24.750;2022-12-20T06:02:47;46.10;;;17.45;;
32874;SDS011;40468;42.128;24.750;2022-12-20T06:04:18;40.20;;;17.02;;
32874;SDS011;40468;42.128;24.750;2022-12-20T06:05:50;36.88;;;15.57;;
32874;SDS011;40468;42.128;24.750;2022-12-20T06:07:22;49.03;;;17.73;;
32874;SDS011;40468;42.128;24.750;2022-12-20T06:08:55;40.88;;;15.55;;
32874;SDS011;40468;42.128;24.750;2022-12-20T06:10:27;45.75;;;17.67;;
32874;SDS011;40468;42.128;24.750;2022-12-20T06:11:59;47.58;;;17.90;;
32874;SDS011;40468;42.128;24.750;2022-12-20T06:13:30;43.50;;;17.92;;
32874;SDS011;40468;42.128;24.750;2022-12-20T06:15:02;43.10;;;18.38;;
32874;SDS011;40468;42.128;24.750;2022-12-20T06:16:35;42.87;;;17.90;;
32874;SDS011;40468;42.128;24.750;2022-12-20T06:18:07;50.78;;;16.70;;
32874;SDS011;40468;42.128;24.750;2022-12-20T06:19:39;50.78;;;16.88;;
32874;SDS011;40468;42.128;24.750;2022-12-20T06:21:11;48.97;;;19.00;;
32874;SDS011;40468;42.128;24.750;2022-12-20T06:22:43;53.15;;;17.25;;
32874;SDS011;40468;42.128;24.750;2022-12-20T06:24:16;48.22;;;19.40;;
32874;SDS011;40468;42.128;24.750;2022-12-20T06:27:20;44.42;;;15.85;;
32874;SDS011;40468;42.128;24.750;2022-12-20T06:28:52;45.20;;;17.88;;
32874;SDS011;40468;42.128;24.750;2022-12-20T06:31:57;41.55;;;16.88;;
32874;SDS011;40468;42.128;24.750;2022-12-20T06:33:28;52.97;;;19.10;;
32874;SDS011;40468;42.128;24.750;2022-12-20T06:35:00;48.60;;;19.45;;
32874;SDS011;40468;42.128;24.750;2022-12-20T06:36:32;47.40;;;18.27;;
32874;SDS011;40468;42.128;24.750;2022-12-20T06:38:04;54.00;;;19.63;;
32874;SDS011;40468;42.128;24.750;2022-12-20T06:39:37;42.50;;;17.20;;
32874;SDS011;40468;42.128;24.750;2022-12-20T06:41:09;43.85;;;18.98;;
32874;SDS011;40468;42.128;24.750;2022-12-20T06:42:41;49.22;;;20.17;;
32874;SDS011;40468;42.128;24.750;2022-12-20T06:44:13;44.25;;;18.10;;
32874;SDS011;40468;42.128;24.750;2022-12-20T06:45:45;42.45;;;16.90;;
32874;SDS011;40468;42.128;24.750;2022-12-20T06:47:17;48.28;;;18.90;;
32874;SDS011;40468;42.128;24.750;2022-12-20T06:48:50;48.95;;;19.13;;
32874;SDS011;40468;42.128;24.750;2022-12-20T06:50:21;53.60;;;19.58;;
32874;SDS011;40468;42.128;24.750;2022-12-20T06:51:53;52.35;;;19.92;;
32874;SDS011;40468;42.128;24.750;2022-12-20T06:53:24;43.10;;;17.23;;
32874;SDS011;40468;42.128;24.750;2022-12-20T06:54:57;38.78;;;16.73;;
32874;SDS011;40468;42.128;24.750;2022-12-20T06:58:02;39.10;;;17.95;;
32874;SDS011;40468;42.128;24.750;2022-12-20T06:59:34;49.67;;;18.73;;
32874;SDS011;40468;42.128;24.750;2022-12-20T07:01:06;48.15;;;16.70;;
32874;SDS011;40468;42.128;24.750;2022-12-20T07:02:37;52.53;;;21.90;;
32874;SDS011;40468;42.128;24.750;2022-12-20T07:04:09;63.83;;;22.75;;
32874;SDS011;40468;42.128;24.750;2022-12-20T07:05:41;93.38;;;36.95;;
32874;SDS011;40468;42.128;24.750;2022-12-20T07:07:13;48.22;;;22.48;;
32874;SDS011;40468;42.128;24.750;2022-12-20T07:08:46;42.25;;;17.15;;
32874;SDS011;40468;42.128;24.750;2022-12-20T07:10:19;44.15;;;17.52;;
32874;SDS011;40468;42.128;24.750;2022-12-20T07:11:51;46.10;;;16.58;;
32874;SDS011;40468;42.128;24.750;2022-12-20T07:13:23;39.47;;;17.13;;
32874;SDS011;40468;42.128;24.750;2022-12-20T07:14:55;47.28;;;17.35;;
32874;SDS011;40468;42.128;24.750;2022-12-20T07:16:27;61.13;;;25.15;;
32874;SDS011;40468;42.128;24.750;2022-12-20T07:17:57;56.45;;;24.35;;
32874;SDS011;40468;42.128;24.750;2022-12-20T07:19:29;41.55;;;15.63;;
32874;SDS011;40468;42.128;24.750;2022-12-20T07:21:02;36.53;;;15.05;;
32874;SDS011;40468;42.128;24.750;2022-12-20T07:22:35;35.45;;;15.13;;
32874;SDS011;40468;42.128;24.750;2022-12-20T07:24:07;35.55;;;14.38;;
32874;SDS011;40468;42.128;24.750;2022-12-20T07:25:41;42.08;;;15.10;;
32874;SDS011;40468;42.128;24.750;2022-12-20T07:27:12;36.53;;;15.80;;
32874;SDS011;40468;42.128;24.750;2022-12-20T07:28:44;39.15;;;15.63;;
32874;SDS011;40468;42.128;24.750;2022-12-20T07:30:16;43.03;;;16.23;;
32874;SDS011;40468;42.128;24.750;2022-12-20T07:31:49;51.08;;;17.13;;
32874;SDS011;40468;42.128;24.750;2022-12-20T07:33:21;44.90;;;18.00;;
32874;SDS011;40468;42.128;24.750;2022-12-20T07:34:53;39.83;;;15.38;;
32874;SDS011;40468;42.128;24.750;2022-12-20T07:36:25;38.67;;;15.20;;
32874;SDS011;40468;42.128;24.750;2022-12-20T07:37:57;29.40;;;13.90;;
32874;SDS011;40468;42.128;24.750;2022-12-20T07:39:29;29.88;;;12.77;;
32874;SDS011;40468;42.128;24.750;2022-12-20T07:41:06;34.10;;;12.95;;
32874;SDS011;40468;42.128;24.750;2022-12-20T07:42:38;32.30;;;13.80;;
32874;SDS011;40468;42.128;24.750;2022-12-20T07:44:10;37.47;;;13.93;;
32874;SDS011;40468;42.128;24.750;2022-12-20T07:45:42;31.77;;;12.95;;
32874;SDS011;40468;42.128;24.750;2022-12-20T07:47:14;33.80;;;12.93;;
32874;SDS011;40468;42.128;24.750;2022-12-20T07:48:46;30.80;;;13.68;;
32874;SDS011;40468;42.128;24.750;2022-12-20T07:50:18;32.67;;;14.23;;
32874;SDS011;40468;42.128;24.750;2022-12-20T07:51:50;29.80;;;12.45;;
32874;SDS011;40468;42.128;24.750;2022-12-20T07:53:25;42.95;;;14.93;;
32874;SDS011;40468;42.128;24.750;2022-12-20T07:56:34;34.97;;;13.00;;
32874;SDS011;40468;42.128;24.750;2022-12-20T07:58:08;38.83;;;15.10;;
32874;SDS011;40468;42.128;24.750;2022-12-20T07:59:43;36.95;;;15.52;;
32874;SDS011;40468;42.128;24.750;2022-12-20T08:01:21;34.53;;;13.82;;
32874;SDS011;40468;42.128;24.750;2022-12-20T08:02:54;28.25;;;12.55;;
32874;SDS011;40468;42.128;24.750;2022-12-20T08:04:29;26.67;;;13.48;;
32874;SDS011;40468;42.128;24.750;2022-12-20T08:06:02;37.05;;;15.55;;
32874;SDS011;40468;42.128;24.750;2022-12-20T08:07:37;31.13;;;13.93;;
32874;SDS011;40468;42.128;24.750;2022-12-20T08:09:11;29.95;;;14.10;;
32874;SDS011;40468;42.128;24.750;2022-12-20T08:10:45;32.38;;;14.60;;
32874;SDS011;40468;42.128;24.750;2022-12-20T08:12:18;31.47;;;14.50;;
32874;SDS011;40468;42.128;24.750;2022-12-20T08:13:51;31.88;;;15.75;;
32874;SDS011;40468;42.128;24.750;2022-12-20T08:15:23;33.63;;;15.27;;
32874;SDS011;40468;42.128;24.750;2022-12-20T08:16:56;33.38;;;15.15;;
32874;SDS011;40468;42.128;24.750;2022-12-20T08:18:27;33.47;;;14.20;;
32874;SDS011;40468;42.128;24.750;2022-12-20T08:19:59;28.83;;;13.88;;
32874;SDS011;40468;42.128;24.750;2022-12-20T08:21:31;38.92;;;17.63;;
32874;SDS011;40468;42.128;24.750;2022-12-20T08:23:03;35.25;;;15.05;;
32874;SDS011;40468;42.128;24.750;2022-12-20T08:24:35;34.97;;;15.52;;
32874;SDS011;40468;42.128;24.750;2022-12-20T08:26:07;34.80;;;14.77;;
32874;SDS011;40468;42.128;24.750;2022-12-20T08:27:40;31.52;;;14.93;;
32874;SDS011;40468;42.128;24.750;2022-12-20T08:29:13;27.40;;;12.95;;
32874;SDS011;40468;42.128;24.750;2022-12-20T08:30:44;27.00;;;12.85;;
32874;SDS011;40468;42.128;24.750;2022-12-20T08:32:16;30.15;;;12.85;;
32874;SDS011;40468;42.128;24.750;2022-12-20T08:33:48;22.42;;;11.23;;
32874;SDS011;40468;42.128;24.750;2022-12-20T08:35:21;27.63;;;13.05;;
32874;SDS011;40468;42.128;24.750;2022-12-20T08:36:53;24.03;;;11.73;;
32874;SDS011;40468;42.128;24.750;2022-12-20T08:38:25;25.08;;;12.68;;
32874;SDS011;40468;42.128;24.750;2022-12-20T08:39:58;27.92;;;12.65;;
32874;SDS011;40468;42.128;24.750;2022-12-20T08:41:30;28.40;;;14.18;;
32874;SDS011;40468;42.128;24.750;2022-12-20T08:43:08;32.53;;;16.10;;
32874;SDS011;40468;42.128;24.750;2022-12-20T08:44:40;29.00;;;13.10;;
32874;SDS011;40468;42.128;24.750;2022-12-20T08:46:13;31.00;;;13.15;;
32874;SDS011;40468;42.128;24.750;2022-12-20T08:47:45;50.95;;;23.60;;
32874;SDS011;40468;42.128;24.750;2022-12-20T08:49:17;39.47;;;17.50;;
32874;SDS011;40468;42.128;24.750;2022-12-20T08:50:53;39.58;;;20.27;;
32874;SDS011;40468;42.128;24.750;2022-12-20T08:52:27;59.67;;;20.40;;
32874;SDS011;40468;42.128;24.750;2022-12-20T08:53:58;29.77;;;14.48;;
32874;SDS011;40468;42.128;24.750;2022-12-20T08:55:31;25.92;;;12.52;;
32874;SDS011;40468;42.128;24.750;2022-12-20T08:57:03;26.67;;;10.77;;
32874;SDS011;40468;42.128;24.750;2022-12-20T08:58:37;26.65;;;10.63;;
32874;SDS011;40468;42.128;24.750;2022-12-20T09:00:10;23.25;;;12.10;;
32874;SDS011;40468;42.128;24.750;2022-12-20T09:01:43;23.67;;;12.00;;
32874;SDS011;40468;42.128;24.750;2022-12-20T09:03:14;23.23;;;11.77;;
32874;SDS011;40468;42.128;24.750;2022-12-20T09:04:46;47.53;;;22.67;;
32874;SDS011;40468;42.128;24.750;2022-12-20T09:06:19;25.40;;;13.57;;
32874;SDS011;40468;42.128;24.750;2022-12-20T09:07:52;34.25;;;17.13;;
32874;SDS011;40468;42.128;24.750;2022-12-20T09:09:24;17.85;;;8.73;;
32874;SDS011;40468;42.128;24.750;2022-12-20T09:11:01;18.00;;;10.05;;
32874;SDS011;40468;42.128;24.750;2022-12-20T09:12:36;19.45;;;9.80;;
32874;SDS011;40468;42.128;24.750;2022-12-20T09:14:10;23.50;;;10.25;;